sensor_id;sensor_type;location;lat;lon;timestamp;pressure;altitude;pressure_sealevel;temperature;humidity
11856;BME280;5987;53.140;8.904;2022-07-21T00:02:30;101562.59;;;19.23;74.07
11856;BME280;5987;53.140;8.904;2022-07-21T00:05:34;101546.53;;;19.25;74.06
11856;BME280;5987;53.140;8.904;2022-07-21T00:08:37;101551.56;;;19.15;73.92
11856;BME280;5987;53.140;8.904;2022-07-21T00:11:42;101547.75;;;19.05;74.58
11856;BME280;5987;53.140;8.904;2022-07-21T00:14:45;101553.81;;;19.07;74.81
11856;BME280;5987;53.140;8.904;2022-07-21T00:17:51;101574.88;;;19.11;74.98
11856;BME280;5987;53.140;8.904;2022-07-21T00:20:55;101594.72;;;19.20;74.67
11856;BME280;5987;53.140;8.904;2022-07-21T00:23:59;101618.59;;;19.22;74.47
11856;BME280;5987;53.140;8.904;2022-07-21T00:27:03;101634.28;;;19.26;74.44
11856;BME280;5987;53.140;8.904;2022-07-21T00:30:09;101666.81;;;19.17;74.63
11856;BME280;5987;53.140;8.904;2022-07-21T00:33:15;101672.03;;;19.18;75.38
11856;BME280;5987;53.140;8.904;2022-07-21T00:36:19;101684.88;;;19.26;75.41
11856;BME280;5987;53.140;8.904;2022-07-21T00:39:23;101703.41;;;19.28;75.60
11856;BME280;5987;53.140;8.904;2022-07-21T00:42:29;101735.28;;;19.29;75.92
11856;BME280;5987;53.140;8.904;2022-07-21T00:45:34;101773.16;;;19.34;76.07
11856;BME280;5987;53.140;8.904;2022-07-21T00:48:40;101775.19;;;19.45;76.17
11856;BME280;5987;53.140;8.904;2022-07-21T00:51:44;101750.56;;;19.56;76.09
11856;BME280;5987;53.140;8.904;2022-07-21T00:54:48;101741.25;;;19.63;76.10
11856;BME280;5987;53.140;8.904;2022-07-21T00:57:53;101739.34;;;19.65;75.83
11856;BME280;5987;53.140;8.904;2022-07-21T01:00:57;101733.75;;;19.70;75.92
11856;BME280;5987;53.140;8.904;2022-07-21T01:04:02;101718.53;;;19.72;75.56
11856;BME280;5987;53.140;8.904;2022-07-21T01:07:07;101698.56;;;19.79;75.25
11856;BME280;5987;53.140;8.904;2022-07-21T01:10:13;101675.50;;;19.78;74.92
11856;BME280;5987;53.140;8.904;2022-07-21T01:13:17;101645.53;;;19.75;74.74
11856;BME280;5987;53.140;8.904;2022-07-21T01:16:21;101627.44;;;19.65;74.71
11856;BME280;5987;53.140;8.904;2022-07-21T01:19:26;101618.03;;;19.60;74.49
11856;BME280;5987;53.140;8.904;2022-07-21T01:22:32;101619.56;;;19.64;74.61
11856;BME280;5987;53.140;8.904;2022-07-21T01:25:36;101614.22;;;19.64;74.57
11856;BME280;5987;53.140;8.904;2022-07-21T01:28:40;101602.91;;;19.60;74.74
11856;BME280;5987;53.140;8.904;2022-07-21T01:31:48;101596.06;;;19.56;74.88
11856;BME280;5987;53.140;8.904;2022-07-21T01:34:53;101592.84;;;19.51;75.03
11856;BME280;5987;53.140;8.904;2022-07-21T01:37:58;101618.78;;;19.47;75.24
11856;BME280;5987;53.140;8.904;2022-07-21T01:41:02;101605.38;;;19.49;75.36
11856;BME280;5987;53.140;8.904;2022-07-21T01:44:23;101617.47;;;19.40;75.54
11856;BME280;5987;53.140;8.904;2022-07-21T01:47:27;101631.28;;;19.47;75.81
11856;BME280;5987;53.140;8.904;2022-07-21T01:50:40;101614.72;;;19.42;75.73
11856;BME280;5987;53.140;8.904;2022-07-21T01:53:45;101621.56;;;19.46;75.64
11856;BME280;5987;53.140;8.904;2022-07-21T01:56:49;101624.81;;;19.51;75.72
11856;BME280;5987;53.140;8.904;2022-07-21T01:59:53;101618.88;;;19.46;75.38
11856;BME280;5987;53.140;8.904;2022-07-21T02:02:56;101627.72;;;19.46;75.63
11856;BME280;5987;53.140;8.904;2022-07-21T02:06:08;101638.13;;;19.51;75.71
11856;BME280;5987;53.140;8.904;2022-07-21T02:09:21;101631.75;;;19.53;75.54
11856;BME280;5987;53.140;8.904;2022-07-21T02:12:32;101646.66;;;19.56;75.53
11856;BME280;5987;53.140;8.904;2022-07-21T02:15:45;101647.44;;;19.58;75.32
11856;BME280;5987;53.140;8.904;2022-07-21T02:18:57;101642.97;;;19.59;75.27
11856;BME280;5987;53.140;8.904;2022-07-21T02:22:00;101650.66;;;19.63;74.99
11856;BME280;5987;53.140;8.904;2022-07-21T02:25:06;101648.00;;;19.63;75.03
11856;BME280;5987;53.140;8.904;2022-07-21T02:28:16;101647.25;;;19.61;74.74
11856;BME280;5987;53.140;8.904;2022-07-21T02:31:20;101653.63;;;19.59;74.89
11856;BME280;5987;53.140;8.904;2022-07-21T02:34:24;101646.56;;;19.58;74.65
11856;BME280;5987;53.140;8.904;2022-07-21T02:37:37;101641.25;;;19.58;74.54
11856;BME280;5987;53.140;8.904;2022-07-21T02:40:42;101628.22;;;19.53;74.04
11856;BME280;5987;53.140;8.904;2022-07-21T02:43:46;101620.03;;;19.42;73.85
11856;BME280;5987;53.140;8.904;2022-07-21T02:46:57;101629.84;;;19.41;73.95
11856;BME280;5987;53.140;8.904;2022-07-21T02:50:04;101644.84;;;19.42;73.68
11856;BME280;5987;53.140;8.904;2022-07-21T02:53:21;101648.38;;;19.43;73.78
11856;BME280;5987;53.140;8.904;2022-07-21T02:56:34;101641.53;;;19.39;73.50
11856;BME280;5987;53.140;8.904;2022-07-21T02:59:37;101640.00;;;19.34;73.46
11856;BME280;5987;53.140;8.904;2022-07-21T03:02:41;101627.06;;;19.28;73.42
11856;BME280;5987;53.140;8.904;2022-07-21T03:05:45;101613.47;;;19.18;73.81
11856;BME280;5987;53.140;8.904;2022-07-21T03:08:48;101615.44;;;19.29;74.06
11856;BME280;5987;53.140;8.904;2022-07-21T03:12:02;101600.25;;;19.17;74.06
11856;BME280;5987;53.140;8.904;2022-07-21T03:15:12;101599.66;;;19.12;74.59
11856;BME280;5987;53.140;8.904;2022-07-21T03:18:24;101612.78;;;19.15;75.03
11856;BME280;5987;53.140;8.904;2022-07-21T03:21:36;101602.69;;;19.06;75.34
11856;BME280;5987;53.140;8.904;2022-07-21T03:24:48;101577.69;;;18.94;76.04
11856;BME280;5987;53.140;8.904;2022-07-21T03:28:02;101563.28;;;18.82;76.68
11856;BME280;5987;53.140;8.904;2022-07-21T03:31:12;101581.13;;;18.80;77.19
11856;BME280;5987;53.140;8.904;2022-07-21T03:34:24;101604.47;;;18.91;77.67
11856;BME280;5987;53.140;8.904;2022-07-21T03:37:28;101614.44;;;18.87;77.83
11856;BME280;5987;53.140;8.904;2022-07-21T03:40:35;101613.84;;;18.82;78.15
11856;BME280;5987;53.140;8.904;2022-07-21T03:43:45;101597.72;;;18.69;78.53
11856;BME280;5987;53.140;8.904;2022-07-21T03:46:49;101607.56;;;18.52;78.83
11856;BME280;5987;53.140;8.904;2022-07-21T03:49:53;101610.53;;;18.62;79.61
11856;BME280;5987;53.140;8.904;2022-07-21T03:52:57;101583.72;;;18.51;79.38
11856;BME280;5987;53.140;8.904;2022-07-21T03:56:01;101576.97;;;18.45;80.17
11856;BME280;5987;53.140;8.904;2022-07-21T03:59:06;101570.44;;;18.51;80.49
11856;BME280;5987;53.140;8.904;2022-07-21T04:02:10;101566.34;;;18.60;80.75
11856;BME280;5987;53.140;8.904;2022-07-21T04:05:15;101560.31;;;18.42;80.57
11856;BME280;5987;53.140;8.904;2022-07-21T04:08:19;101551.72;;;18.37;81.25
11856;BME280;5987;53.140;8.904;2022-07-21T04:11:23;101562.31;;;18.38;81.61
11856;BME280;5987;53.140;8.904;2022-07-21T04:14:28;101564.69;;;18.43;81.91
11856;BME280;5987;53.140;8.904;2022-07-21T04:17:32;101560.69;;;18.36;81.81
11856;BME280;5987;53.140;8.904;2022-07-21T04:20:36;101565.63;;;18.42;81.94
11856;BME280;5987;53.140;8.904;2022-07-21T04:23:40;101559.28;;;18.44;81.90
11856;BME280;5987;53.140;8.904;2022-07-21T04:26:43;101548.47;;;18.47;81.82
11856;BME280;5987;53.140;8.904;2022-07-21T04:29:48;101555.69;;;18.29;81.42
11856;BME280;5987;53.140;8.904;2022-07-21T04:32:53;101541.28;;;18.33;81.48
11856;BME280;5987;53.140;8.904;2022-07-21T04:35:56;101520.38;;;18.27;81.85
11856;BME280;5987;53.140;8.904;2022-07-21T04:39:00;101521.03;;;18.31;82.50
11856;BME280;5987;53.140;8.904;2022-07-21T04:42:04;101516.28;;;18.22;83.09
11856;BME280;5987;53.140;8.904;2022-07-21T04:45:31;101508.13;;;18.25;83.17
11856;BME280;5987;53.140;8.904;2022-07-21T04:48:35;101517.50;;;18.16;83.42
11856;BME280;5987;53.140;8.904;2022-07-21T04:51:38;101522.91;;;18.14;83.63
11856;BME280;5987;53.140;8.904;2022-07-21T04:54:43;101522.09;;;18.28;83.59
11856;BME280;5987;53.140;8.904;2022-07-21T04:57:49;101515.41;;;18.21;83.47
11856;BME280;5987;53.140;8.904;2022-07-21T05:00:55;101510.03;;;18.07;83.35
11856;BME280;5987;53.140;8.904;2022-07-21T05:03:58;101509.47;;;18.02;83.15
11856;BME280;5987;53.140;8.904;2022-07-21T05:07:02;101522.22;;;18.11;83.33
11856;BME280;5987;53.140;8.904;2022-07-21T05:10:09;101537.47;;;18.23;83.25
11856;BME280;5987;53.140;8.904;2022-07-21T05:13:13;101540.63;;;18.30;83.17
11856;BME280;5987;53.140;8.904;2022-07-21T05:16:18;101536.97;;;18.47;83.70
11856;BME280;5987;53.140;8.904;2022-07-21T05:19:22;101551.44;;;18.57;83.58
11856;BME280;5987;53.140;8.904;2022-07-21T05:22:26;101556.31;;;18.65;83.41
11856;BME280;5987;53.140;8.904;2022-07-21T05:25:29;101559.81;;;18.65;83.31
11856;BME280;5987;53.140;8.904;2022-07-21T05:28:34;101577.41;;;18.68;83.49
11856;BME280;5987;53.140;8.904;2022-07-21T05:31:39;101598.28;;;18.60;83.42
11856;BME280;5987;53.140;8.904;2022-07-21T05:34:43;101596.97;;;18.67;83.69
11856;BME280;5987;53.140;8.904;2022-07-21T05:37:46;101605.75;;;18.83;84.05
11856;BME280;5987;53.140;8.904;2022-07-21T05:40:50;101600.78;;;18.77;83.76
11856;BME280;5987;53.140;8.904;2022-07-21T05:43:54;101599.34;;;18.88;83.97
11856;BME280;5987;53.140;8.904;2022-07-21T05:46:59;101608.94;;;18.74;84.05
11856;BME280;5987;53.140;8.904;2022-07-21T05:50:05;101624.16;;;18.72;84.14
11856;BME280;5987;53.140;8.904;2022-07-21T05:53:09;101618.94;;;18.71;84.42
11856;BME280;5987;53.140;8.904;2022-07-21T05:56:13;101612.75;;;18.70;84.40
11856;BME280;5987;53.140;8.904;2022-07-21T05:59:17;101607.59;;;18.67;84.65
11856;BME280;5987;53.140;8.904;2022-07-21T06:02:22;101605.53;;;18.72;84.99
11856;BME280;5987;53.140;8.904;2022-07-21T06:05:26;101603.09;;;18.83;85.03
11856;BME280;5987;53.140;8.904;2022-07-21T06:08:30;101598.91;;;18.79;85.23
11856;BME280;5987;53.140;8.904;2022-07-21T06:11:33;101617.16;;;18.85;84.58
11856;BME280;5987;53.140;8.904;2022-07-21T06:14:38;101620.44;;;18.91;84.36
11856;BME280;5987;53.140;8.904;2022-07-21T06:17:45;101634.84;;;18.86;84.53
11856;BME280;5987;53.140;8.904;2022-07-21T06:20:49;101630.56;;;18.84;84.38
11856;BME280;5987;53.140;8.904;2022-07-21T06:23:52;101634.41;;;18.94;84.70
11856;BME280;5987;53.140;8.904;2022-07-21T06:26:57;101633.47;;;18.95;84.56
11856;BME280;5987;53.140;8.904;2022-07-21T06:30:09;101643.91;;;18.98;84.46
11856;BME280;5987;53.140;8.904;2022-07-21T06:33:14;101650.59;;;19.06;84.53
11856;BME280;5987;53.140;8.904;2022-07-21T06:36:18;101651.97;;;19.13;84.58
11856;BME280;5987;53.140;8.904;2022-07-21T06:39:21;101642.16;;;19.13;84.56
11856;BME280;5987;53.140;8.904;2022-07-21T06:42:25;101648.13;;;19.02;84.76
11856;BME280;5987;53.140;8.904;2022-07-21T06:45:29;101645.38;;;19.04;85.28
11856;BME280;5987;53.140;8.904;2022-07-21T06:48:34;101637.47;;;19.02;85.59
11856;BME280;5987;53.140;8.904;2022-07-21T06:51:38;101643.78;;;19.01;85.76
11856;BME280;5987;53.140;8.904;2022-07-21T06:54:42;101653.22;;;18.91;85.62
11856;BME280;5987;53.140;8.904;2022-07-21T06:57:45;101662.16;;;18.90;86.45
11856;BME280;5987;53.140;8.904;2022-07-21T07:00:51;101675.63;;;18.87;86.22
11856;BME280;5987;53.140;8.904;2022-07-21T07:03:56;101671.78;;;18.77;86.66
11856;BME280;5987;53.140;8.904;2022-07-21T07:07:00;101677.03;;;18.62;86.62
11856;BME280;5987;53.140;8.904;2022-07-21T07:10:05;101667.34;;;18.61;86.99
11856;BME280;5987;53.140;8.904;2022-07-21T07:13:10;101667.16;;;18.64;87.32
11856;BME280;5987;53.140;8.904;2022-07-21T07:16:35;101673.41;;;18.63;87.02
11856;BME280;5987;53.140;8.904;2022-07-21T07:19:40;101682.28;;;18.64;87.32
11856;BME280;5987;53.140;8.904;2022-07-21T07:22:44;101688.44;;;18.64;87.72
11856;BME280;5987;53.140;8.904;2022-07-21T07:25:48;101683.13;;;18.64;87.79
11856;BME280;5987;53.140;8.904;2022-07-21T07:28:52;101689.66;;;18.75;88.45
11856;BME280;5987;53.140;8.904;2022-07-21T07:31:57;101694.69;;;18.63;88.58
11856;BME280;5987;53.140;8.904;2022-07-21T07:35:02;101695.84;;;18.59;89.36
11856;BME280;5987;53.140;8.904;2022-07-21T07:38:06;101695.50;;;18.49;89.79
11856;BME280;5987;53.140;8.904;2022-07-21T07:41:10;101690.19;;;18.49;90.36
11856;BME280;5987;53.140;8.904;2022-07-21T07:44:15;101688.09;;;18.55;91.25
11856;BME280;5987;53.140;8.904;2022-07-21T07:47:19;101693.44;;;18.55;91.60
11856;BME280;5987;53.140;8.904;2022-07-21T07:50:24;101691.38;;;18.60;92.20
11856;BME280;5987;53.140;8.904;2022-07-21T07:53:28;101693.75;;;18.64;92.57
11856;BME280;5987;53.140;8.904;2022-07-21T07:56:32;101691.16;;;18.79;93.17
11856;BME280;5987;53.140;8.904;2022-07-21T07:59:36;101680.19;;;18.69;93.30
11856;BME280;5987;53.140;8.904;2022-07-21T08:02:39;101688.25;;;18.83;93.34
11856;BME280;5987;53.140;8.904;2022-07-21T08:05:45;101687.38;;;18.99;93.50
11856;BME280;5987;53.140;8.904;2022-07-21T08:08:48;101687.69;;;19.09;93.46
11856;BME280;5987;53.140;8.904;2022-07-21T08:11:52;101697.00;;;19.01;93.36
11856;BME280;5987;53.140;8.904;2022-07-21T08:14:56;101695.16;;;18.88;93.19
11856;BME280;5987;53.140;8.904;2022-07-21T08:18:00;101699.41;;;18.90;93.27
11856;BME280;5987;53.140;8.904;2022-07-21T08:21:05;101697.25;;;18.97;93.46
11856;BME280;5987;53.140;8.904;2022-07-21T08:24:09;101695.72;;;18.93;93.48
11856;BME280;5987;53.140;8.904;2022-07-21T08:27:13;101701.22;;;18.90;93.58
11856;BME280;5987;53.140;8.904;2022-07-21T08:30:17;101703.25;;;18.84;93.31
11856;BME280;5987;53.140;8.904;2022-07-21T08:33:24;101699.75;;;18.84;93.52
11856;BME280;5987;53.140;8.904;2022-07-21T08:36:29;101708.00;;;18.95;93.24
11856;BME280;5987;53.140;8.904;2022-07-21T08:39:33;101715.03;;;18.96;92.96
11856;BME280;5987;53.140;8.904;2022-07-21T08:42:37;101709.78;;;19.25;92.66
11856;BME280;5987;53.140;8.904;2022-07-21T08:45:42;101713.25;;;19.56;92.46
11856;BME280;5987;53.140;8.904;2022-07-21T08:48:46;101702.47;;;19.88;91.83
11856;BME280;5987;53.140;8.904;2022-07-21T08:51:53;101704.16;;;20.03;90.52
11856;BME280;5987;53.140;8.904;2022-07-21T08:54:56;101702.53;;;20.30;89.36
11856;BME280;5987;53.140;8.904;2022-07-21T08:58:01;101698.88;;;20.72;88.93
11856;BME280;5987;53.140;8.904;2022-07-21T09:01:09;101700.31;;;20.64;86.86
11856;BME280;5987;53.140;8.904;2022-07-21T09:04:27;101694.88;;;20.65;85.54
11856;BME280;5987;53.140;8.904;2022-07-21T09:07:52;101699.66;;;20.60;84.25
11856;BME280;5987;53.140;8.904;2022-07-21T09:11:16;101701.00;;;20.67;84.48
11856;BME280;5987;53.140;8.904;2022-07-21T09:14:24;101709.81;;;20.82;83.52
11856;BME280;5987;53.140;8.904;2022-07-21T09:17:27;101712.13;;;21.01;83.73
11856;BME280;5987;53.140;8.904;2022-07-21T09:20:53;101710.06;;;20.92;82.91
11856;BME280;5987;53.140;8.904;2022-07-21T09:24:14;101703.09;;;21.17;81.73
11856;BME280;5987;53.140;8.904;2022-07-21T09:27:21;101709.59;;;21.13;80.17
11856;BME280;5987;53.140;8.904;2022-07-21T09:30:25;101710.06;;;21.45;79.92
11856;BME280;5987;53.140;8.904;2022-07-21T09:33:32;101714.44;;;21.46;79.72
11856;BME280;5987;53.140;8.904;2022-07-21T09:36:36;101712.53;;;21.61;79.28
11856;BME280;5987;53.140;8.904;2022-07-21T09:39:47;101704.59;;;21.47;78.71
11856;BME280;5987;53.140;8.904;2022-07-21T09:42:51;101705.41;;;21.08;77.97
11856;BME280;5987;53.140;8.904;2022-07-21T09:45:55;101707.81;;;20.86;78.85
11856;BME280;5987;53.140;8.904;2022-07-21T09:49:00;101716.81;;;21.11;79.41
11856;BME280;5987;53.140;8.904;2022-07-21T09:52:29;101715.41;;;20.92;79.11
11856;BME280;5987;53.140;8.904;2022-07-21T09:55:34;101705.53;;;20.80;79.36
11856;BME280;5987;53.140;8.904;2022-07-21T09:58:39;101716.44;;;20.62;79.42
11856;BME280;5987;53.140;8.904;2022-07-21T10:01:44;101712.47;;;20.55;79.73
11856;BME280;5987;53.140;8.904;2022-07-21T10:05:03;101711.84;;;20.64;79.79
11856;BME280;5987;53.140;8.904;2022-07-21T10:08:12;101707.19;;;21.61;79.59
11856;BME280;5987;53.140;8.904;2022-07-21T10:11:17;101702.16;;;21.82;75.78
11856;BME280;5987;53.140;8.904;2022-07-21T10:14:29;101699.03;;;22.01;75.05
11856;BME280;5987;53.140;8.904;2022-07-21T10:17:33;101701.78;;;22.13;72.75
11856;BME280;5987;53.140;8.904;2022-07-21T10:20:39;101699.41;;;22.34;70.64
11856;BME280;5987;53.140;8.904;2022-07-21T10:23:53;101701.88;;;22.61;69.80
11856;BME280;5987;53.140;8.904;2022-07-21T10:27:05;101711.63;;;22.25;68.70
11856;BME280;5987;53.140;8.904;2022-07-21T10:30:10;101714.63;;;22.07;68.70
11856;BME280;5987;53.140;8.904;2022-07-21T10:36:45;101700.16;;;22.23;67.77
11856;BME280;5987;53.140;8.904;2022-07-21T10:39:49;101703.00;;;22.46;67.02
11856;BME280;5987;53.140;8.904;2022-07-21T10:43:39;101685.63;;;22.75;65.05
11856;BME280;5987;53.140;8.904;2022-07-21T10:47:03;101691.03;;;22.38;65.14
11856;BME280;5987;53.140;8.904;2022-07-21T10:50:07;101691.09;;;22.50;65.58
11856;BME280;5987;53.140;8.904;2022-07-21T10:53:14;101683.78;;;22.40;66.16
11856;BME280;5987;53.140;8.904;2022-07-21T10:56:29;101684.50;;;23.26;65.31
11856;BME280;5987;53.140;8.904;2022-07-21T11:00:22;101689.28;;;23.57;63.46
11856;BME280;5987;53.140;8.904;2022-07-21T11:03:29;101675.81;;;23.23;63.64
11856;BME280;5987;53.140;8.904;2022-07-21T11:06:36;101676.91;;;23.20;64.30
11856;BME280;5987;53.140;8.904;2022-07-21T11:10:16;101672.47;;;23.55;64.30
11856;BME280;5987;53.140;8.904;2022-07-21T11:13:22;101674.38;;;23.30;63.07
11856;BME280;5987;53.140;8.904;2022-07-21T11:17:12;101672.56;;;23.31;64.26
11856;BME280;5987;53.140;8.904;2022-07-21T11:20:28;101674.53;;;23.04;63.76
11856;BME280;5987;53.140;8.904;2022-07-21T11:23:45;101673.56;;;23.05;64.56
11856;BME280;5987;53.140;8.904;2022-07-21T11:26:54;101679.28;;;23.48;64.20
11856;BME280;5987;53.140;8.904;2022-07-21T11:30:01;101676.47;;;23.26;63.00
11856;BME280;5987;53.140;8.904;2022-07-21T11:33:07;101669.91;;;23.06;62.91
11856;BME280;5987;53.140;8.904;2022-07-21T11:36:23;101678.19;;;23.03;62.97
11856;BME280;5987;53.140;8.904;2022-07-21T11:39:28;101670.16;;;22.68;62.29
11856;BME280;5987;53.140;8.904;2022-07-21T11:42:32;101662.94;;;22.92;61.85
11856;BME280;5987;53.140;8.904;2022-07-21T11:45:36;101667.81;;;23.34;61.60
11856;BME280;5987;53.140;8.904;2022-07-21T11:48:42;101654.16;;;23.60;59.81
11856;BME280;5987;53.140;8.904;2022-07-21T11:51:49;101640.16;;;24.02;59.81
11856;BME280;5987;53.140;8.904;2022-07-21T11:54:54;101649.31;;;23.99;58.37
11856;BME280;5987;53.140;8.904;2022-07-21T11:57:58;101639.25;;;24.24;57.89
11856;BME280;5987;53.140;8.904;2022-07-21T12:01:07;101635.59;;;24.25;57.79
11856;BME280;5987;53.140;8.904;2022-07-21T12:04:25;101637.78;;;24.31;57.02
11856;BME280;5987;53.140;8.904;2022-07-21T12:07:31;101624.00;;;24.57;56.05
11856;BME280;5987;53.140;8.904;2022-07-21T12:10:37;101619.38;;;24.59;55.40
11856;BME280;5987;53.140;8.904;2022-07-21T12:13:54;101619.50;;;24.25;55.13
11856;BME280;5987;53.140;8.904;2022-07-21T12:16:59;101612.88;;;24.40;56.33
11856;BME280;5987;53.140;8.904;2022-07-21T12:20:06;101618.28;;;24.18;56.40
11856;BME280;5987;53.140;8.904;2022-07-21T12:23:21;101610.28;;;23.84;57.17
11856;BME280;5987;53.140;8.904;2022-07-21T12:26:25;101619.06;;;23.86;57.22
11856;BME280;5987;53.140;8.904;2022-07-21T12:29:29;101617.75;;;23.57;57.19
11856;BME280;5987;53.140;8.904;2022-07-21T12:32:46;101618.09;;;23.64;58.25
11856;BME280;5987;53.140;8.904;2022-07-21T12:36:01;101618.84;;;23.55;58.42
11856;BME280;5987;53.140;8.904;2022-07-21T12:39:20;101629.81;;;23.40;58.88
11856;BME280;5987;53.140;8.904;2022-07-21T12:42:48;101617.13;;;23.65;59.04
11856;BME280;5987;53.140;8.904;2022-07-21T12:45:55;101623.00;;;23.70;58.65
11856;BME280;5987;53.140;8.904;2022-07-21T12:49:03;101617.13;;;23.76;57.99
11856;BME280;5987;53.140;8.904;2022-07-21T12:52:14;101613.19;;;24.14;57.98
11856;BME280;5987;53.140;8.904;2022-07-21T12:55:21;101613.44;;;24.76;56.58
11856;BME280;5987;53.140;8.904;2022-07-21T12:58:26;101610.09;;;25.05;56.06
11856;BME280;5987;53.140;8.904;2022-07-21T13:01:32;101602.97;;;24.73;55.36
11856;BME280;5987;53.140;8.904;2022-07-21T13:04:37;101603.03;;;25.04;54.74
11856;BME280;5987;53.140;8.904;2022-07-21T13:07:43;101594.59;;;25.18;54.77
11856;BME280;5987;53.140;8.904;2022-07-21T13:10:46;101591.06;;;24.66;55.63
11856;BME280;5987;53.140;8.904;2022-07-21T13:13:51;101585.31;;;24.27;56.28
11856;BME280;5987;53.140;8.904;2022-07-21T13:16:55;101601.75;;;24.01;56.35
11856;BME280;5987;53.140;8.904;2022-07-21T13:19:59;101601.16;;;23.63;57.43
11856;BME280;5987;53.140;8.904;2022-07-21T13:23:10;101602.78;;;23.43;58.33
11856;BME280;5987;53.140;8.904;2022-07-21T13:26:14;101614.09;;;23.47;59.29
11856;BME280;5987;53.140;8.904;2022-07-21T13:29:18;101627.47;;;22.77;61.18
11856;BME280;5987;53.140;8.904;2022-07-21T13:32:22;101638.03;;;21.31;66.11
11856;BME280;5987;53.140;8.904;2022-07-21T13:35:26;101660.03;;;19.85;69.17
11856;BME280;5987;53.140;8.904;2022-07-21T13:38:33;101667.97;;;19.27;69.60
11856;BME280;5987;53.140;8.904;2022-07-21T13:41:37;101668.56;;;19.02;71.29
11856;BME280;5987;53.140;8.904;2022-07-21T13:45:01;101666.94;;;18.99;74.88
11856;BME280;5987;53.140;8.904;2022-07-21T13:48:04;101650.13;;;18.83;77.37
11856;BME280;5987;53.140;8.904;2022-07-21T13:51:08;101644.66;;;18.86;80.13
11856;BME280;5987;53.140;8.904;2022-07-21T13:54:13;101633.19;;;18.69;82.30
11856;BME280;5987;53.140;8.904;2022-07-21T13:57:17;101636.59;;;18.72;84.32
11856;BME280;5987;53.140;8.904;2022-07-21T14:00:21;101621.19;;;18.93;85.53
11856;BME280;5987;53.140;8.904;2022-07-21T14:03:25;101630.38;;;19.03;85.05
11856;BME280;5987;53.140;8.904;2022-07-21T14:06:29;101647.81;;;19.52;85.24
11856;BME280;5987;53.140;8.904;2022-07-21T14:09:35;101650.88;;;19.75;85.25
11856;BME280;5987;53.140;8.904;2022-07-21T14:12:39;101645.16;;;19.95;85.21
11856;BME280;5987;53.140;8.904;2022-07-21T14:15:44;101646.19;;;20.07;85.14
11856;BME280;5987;53.140;8.904;2022-07-21T14:18:48;101621.53;;;20.31;85.59
11856;BME280;5987;53.140;8.904;2022-07-21T14:21:52;101621.22;;;20.63;85.64
11856;BME280;5987;53.140;8.904;2022-07-21T14:24:57;101619.63;;;21.00;85.16
11856;BME280;5987;53.140;8.904;2022-07-21T14:28:19;101611.72;;;21.24;83.88
11856;BME280;5987;53.140;8.904;2022-07-21T14:31:23;101598.13;;;21.40;83.35
11856;BME280;5987;53.140;8.904;2022-07-21T14:34:27;101597.84;;;21.45;82.65
11856;BME280;5987;53.140;8.904;2022-07-21T14:37:31;101588.66;;;21.62;83.18
11856;BME280;5987;53.140;8.904;2022-07-21T14:40:38;101594.88;;;21.87;82.73
11856;BME280;5987;53.140;8.904;2022-07-21T14:43:41;101603.16;;;22.08;81.45
11856;BME280;5987;53.140;8.904;2022-07-21T14:46:45;101601.47;;;22.07;81.08
11856;BME280;5987;53.140;8.904;2022-07-21T14:49:49;101594.00;;;22.23;79.68
11856;BME280;5987;53.140;8.904;2022-07-21T14:52:53;101589.69;;;22.09;76.45
11856;BME280;5987;53.140;8.904;2022-07-21T14:55:58;101590.59;;;22.46;76.27
11856;BME280;5987;53.140;8.904;2022-07-21T14:59:02;101593.41;;;22.44;73.51
11856;BME280;5987;53.140;8.904;2022-07-21T15:02:06;101587.13;;;22.56;73.76
11856;BME280;5987;53.140;8.904;2022-07-21T15:05:16;101584.41;;;22.45;73.54
11856;BME280;5987;53.140;8.904;2022-07-21T15:08:20;101587.31;;;22.42;72.96
11856;BME280;5987;53.140;8.904;2022-07-21T15:11:25;101582.09;;;22.03;73.27
11856;BME280;5987;53.140;8.904;2022-07-21T15:14:29;101584.25;;;21.98;73.75
11856;BME280;5987;53.140;8.904;2022-07-21T15:17:33;101591.88;;;21.91;74.07
11856;BME280;5987;53.140;8.904;2022-07-21T15:20:36;101602.31;;;21.70;74.03
11856;BME280;5987;53.140;8.904;2022-07-21T15:23:40;101605.41;;;21.64;74.52
11856;BME280;5987;53.140;8.904;2022-07-21T15:26:46;101612.47;;;21.39;75.75
11856;BME280;5987;53.140;8.904;2022-07-21T15:29:50;101619.94;;;21.34;76.40
11856;BME280;5987;53.140;8.904;2022-07-21T15:32:53;101617.03;;;21.50;76.57
11856;BME280;5987;53.140;8.904;2022-07-21T15:35:57;101616.31;;;21.48;76.38
11856;BME280;5987;53.140;8.904;2022-07-21T15:39:01;101605.28;;;21.66;75.81
11856;BME280;5987;53.140;8.904;2022-07-21T15:42:09;101603.03;;;21.72;76.09
11856;BME280;5987;53.140;8.904;2022-07-21T15:45:13;101598.72;;;21.96;75.55
11856;BME280;5987;53.140;8.904;2022-07-21T15:48:17;101587.59;;;21.89;74.22
11856;BME280;5987;53.140;8.904;2022-07-21T15:51:21;101584.78;;;22.03;74.54
11856;BME280;5987;53.140;8.904;2022-07-21T15:54:24;101583.75;;;22.17;73.42
11856;BME280;5987;53.140;8.904;2022-07-21T15:57:50;101594.47;;;22.41;73.67
11856;BME280;5987;53.140;8.904;2022-07-21T16:00:54;101585.19;;;22.34;73.03
11856;BME280;5987;53.140;8.904;2022-07-21T16:03:57;101586.72;;;22.50;72.86
11856;BME280;5987;53.140;8.904;2022-07-21T16:07:02;101589.41;;;22.50;72.19
11856;BME280;5987;53.140;8.904;2022-07-21T16:10:07;101589.03;;;22.54;73.13
11856;BME280;5987;53.140;8.904;2022-07-21T16:13:13;101586.03;;;22.35;73.33
11856;BME280;5987;53.140;8.904;2022-07-21T16:16:17;101606.06;;;22.29;73.82
11856;BME280;5987;53.140;8.904;2022-07-21T16:19:23;101614.06;;;21.68;73.23
11856;BME280;5987;53.140;8.904;2022-07-21T16:22:27;101614.47;;;20.57;73.39
11856;BME280;5987;53.140;8.904;2022-07-21T16:25:30;101637.91;;;19.68;76.62
11856;BME280;5987;53.140;8.904;2022-07-21T16:28:35;101631.81;;;19.09;79.59
11856;BME280;5987;53.140;8.904;2022-07-21T16:31:40;101632.28;;;18.85;81.83
11856;BME280;5987;53.140;8.904;2022-07-21T16:34:44;101632.88;;;18.90;83.21